Time;durP1;ratioP1;P1;durP2;ratioP2;P2;SDS_P1;SDS_P2;PMS_P1;PMS_P2;Temp;Humidity;BMP_temperature;BMP_pressure;BME280_temperature;BME280_humidity;BME280_pressure;Samples;Min_cycle;Max_cycle;Signal;HPM_P1;HPM_P2
2023/04/15 00:02:18;;;;;;;4.00;2.13;;;6.10;99.90;;;;;;5061356;28;20179;-79
2023/04/15 00:04:47;;;;;;;7.57;2.10;;;6.10;99.90;;;;;;5059684;28;20199;-79
2023/04/15 00:07:13;;;;;;;5.03;2.00;;;6.00;99.90;;;;;;5060417;28;20594;-79
2023/04/15 00:09:43;;;;;;;5.53;2.23;;;6.10;99.90;;;;;;5058238;28;20210;-79
2023/04/15 00:12:09;;;;;;;4.37;2.33;;;6.00;99.90;;;;;;5059517;28;20681;-79
2023/04/15 00:14:35;;;;;;;5.70;2.27;;;6.00;99.90;;;;;;5059935;28;20183;-79
2023/04/15 00:17:02;;;;;;;9.50;2.13;;;6.00;99.90;;;;;;5059685;28;20167;-79
2023/04/15 00:19:28;;;;;;;3.97;2.40;;;6.00;99.90;;;;;;5060241;28;20171;-79
2023/04/15 00:21:54;;;;;;;2.97;2.20;;;5.90;99.90;;;;;;5060620;28;20182;-79
2023/04/15 00:24:19;;;;;;;4.37;2.37;;;5.90;99.90;;;;;;5058134;28;20203;-79
2023/04/15 00:26:45;;;;;;;5.13;2.70;;;5.90;99.90;;;;;;5059173;28;20179;-78
2023/04/15 00:29:11;;;;;;;4.87;2.83;;;5.90;99.90;;;;;;5060414;28;20195;-78
2023/04/15 00:31:37;;;;;;;8.23;2.90;;;5.80;99.90;;;;;;5060069;28;20183;-79
2023/04/15 00:34:02;;;;;;;6.43;3.23;;;5.90;99.90;;;;;;5059761;28;20725;-79
2023/04/15 00:36:28;;;;;;;5.83;2.33;;;5.80;99.90;;;;;;5057670;28;20520;-79
2023/04/15 00:38:53;;;;;;;6.63;2.87;;;5.80;99.90;;;;;;5059150;28;20168;-79
2023/04/15 00:41:19;;;;;;;5.50;2.80;;;5.80;99.90;;;;;;5060725;28;20272;-80
2023/04/15 00:43:45;;;;;;;9.47;3.20;;;5.80;99.90;;;;;;5057876;28;20617;-79
2023/04/15 00:46:14;;;;;;;4.40;2.80;;;5.80;99.90;;;;;;5059124;28;20226;-79
2023/04/15 00:48:41;;;;;;;4.00;2.73;;;5.80;99.90;;;;;;5058295;28;20183;-79
2023/04/15 00:51:07;;;;;;;4.67;3.20;;;5.70;99.90;;;;;;5059774;28;20198;-80
2023/04/15 00:53:32;;;;;;;5.67;3.03;;;5.70;99.90;;;;;;5058847;28;20195;-79
2023/04/15 00:55:58;;;;;;;5.83;3.77;;;5.70;99.90;;;;;;5060597;28;20227;-80
2023/04/15 00:58:24;;;;;;;5.87;2.87;;;5.70;99.90;;;;;;5059937;28;20179;-80
2023/04/15 01:00:53;;;;;;;5.13;3.17;;;5.70;99.90;;;;;;5059585;28;20784;-79
2023/04/15 01:03:19;;;;;;;5.37;3.00;;;5.70;99.90;;;;;;5059274;28;20267;-80
2023/04/15 01:05:45;;;;;;;9.30;2.87;;;5.70;99.90;;;;;;5058889;28;20531;-80
2023/04/15 01:08:10;;;;;;;7.43;2.67;;;5.70;99.90;;;;;;5059939;28;20167;-81
2023/04/15 01:10:36;;;;;;;4.57;2.83;;;5.60;99.90;;;;;;5060185;28;20269;-80
2023/04/15 01:13:02;;;;;;;5.90;3.20;;;5.60;99.90;;;;;;5058857;28;20268;-80
2023/04/15 01:15:28;;;;;;;5.93;3.60;;;5.60;99.90;;;;;;5057957;28;20172;-79
2023/04/15 01:17:54;;;;;;;6.37;3.10;;;5.60;99.90;;;;;;5057199;28;20229;-80
2023/04/15 01:20:19;;;;;;;6.33;3.37;;;5.50;99.90;;;;;;5058265;28;20198;-80
2023/04/15 01:22:45;;;;;;;8.17;3.60;;;5.50;99.90;;;;;;5056842;28;20267;-80
2023/04/15 01:25:16;;;;;;;5.93;2.57;;;5.50;99.90;;;;;;5056825;28;20582;-80
2023/04/15 01:27:42;;;;;;;7.63;3.03;;;5.50;99.90;;;;;;5057219;28;20511;-80
2023/04/15 01:30:09;;;;;;;5.57;3.00;;;5.50;99.90;;;;;;5058310;28;20287;-80
2023/04/15 01:32:35;;;;;;;7.27;3.20;;;5.50;99.90;;;;;;5058561;28;20235;-80
2023/04/15 01:35:01;;;;;;;7.97;3.33;;;5.40;99.90;;;;;;5056493;28;20203;-79
2023/04/15 01:37:26;;;;;;;6.67;3.50;;;5.40;99.90;;;;;;5057531;28;20175;-78
2023/04/15 01:39:52;;;;;;;7.47;3.70;;;5.40;99.90;;;;;;5056890;28;20175;-79
2023/04/15 01:42:17;;;;;;;6.43;2.80;;;5.40;99.90;;;;;;5057241;28;20281;-79
2023/04/15 01:44:43;;;;;;;4.90;3.27;;;5.40;99.90;;;;;;5059016;28;20195;-79
2023/04/15 01:47:08;;;;;;;5.43;3.73;;;5.30;99.90;;;;;;5056709;28;20489;-79
2023/04/15 01:49:34;;;;;;;6.10;3.17;;;5.30;99.90;;;;;;5058578;28;20199;-79
2023/04/15 01:52:00;;;;;;;7.30;3.20;;;5.20;99.90;;;;;;5059863;28;20639;-79
2023/04/15 01:54:26;;;;;;;7.33;3.33;;;5.20;99.90;;;;;;5057223;28;20229;-80
2023/04/15 01:56:52;;;;;;;8.03;3.50;;;5.20;99.90;;;;;;5058155;28;20543;-79
2023/04/15 01:59:17;;;;;;;4.40;3.03;;;5.20;99.90;;;;;;5058030;28;20171;-81
2023/04/15 02:01:44;;;;;;;6.57;3.33;;;5.10;99.90;;;;;;5057789;28;20179;-79
2023/04/15 02:04:15;;;;;;;10.00;3.57;;;5.10;99.90;;;;;;5058187;28;20310;-81
2023/04/15 02:06:43;;;;;;;9.27;3.77;;;5.10;99.90;;;;;;5058385;28;20163;-80
2023/04/15 02:09:09;;;;;;;9.03;3.80;;;5.10;99.90;;;;;;5058137;28;20817;-80
2023/04/15 02:11:38;;;;;;;8.27;4.17;;;5.00;99.90;;;;;;5021321;28;1050192;-79
2023/04/15 02:14:05;;;;;;;9.03;4.00;;;5.00;99.90;;;;;;5056123;28;20331;-79
2023/04/15 02:16:31;;;;;;;5.97;3.70;;;5.00;99.90;;;;;;5056851;28;20195;-79
2023/04/15 02:18:58;;;;;;;7.77;3.83;;;5.00;99.90;;;;;;5058228;28;20199;-79
2023/04/15 02:21:25;;;;;;;9.90;3.47;;;5.00;99.90;;;;;;5057208;28;20261;-80
2023/04/15 02:23:52;;;;;;;7.63;3.77;;;5.00;99.90;;;;;;5057987;28;20191;-79
2023/04/15 02:26:18;;;;;;;5.53;4.10;;;5.00;99.90;;;;;;5057346;28;20635;-79
2023/04/15 02:28:44;;;;;;;8.57;4.77;;;5.00;99.90;;;;;;5058191;28;20195;-80
2023/04/15 02:31:09;;;;;;;8.33;4.00;;;5.00;99.90;;;;;;5058273;28;20199;-79
2023/04/15 02:33:36;;;;;;;5.43;3.57;;;5.00;99.90;;;;;;5058231;28;20195;-79
2023/04/15 02:36:02;;;;;;;9.33;4.37;;;4.90;99.90;;;;;;5056915;28;20180;-79
2023/04/15 02:38:28;;;;;;;11.07;4.77;;;4.90;99.90;;;;;;5056596;28;20187;-79
2023/04/15 02:40:53;;;;;;;7.33;4.10;;;4.90;99.90;;;;;;5057858;28;20177;-80
2023/04/15 02:43:19;;;;;;;7.53;3.53;;;4.90;99.90;;;;;;5056020;28;20274;-79
2023/04/15 02:45:46;;;;;;;8.83;3.97;;;4.90;99.90;;;;;;5056564;28;20184;-79
2023/04/15 02:48:11;;;;;;;11.97;4.43;;;4.90;99.90;;;;;;5055769;28;20229;-79
2023/04/15 02:50:40;;;;;;;8.83;4.37;;;4.90;99.90;;;;;;5055597;28;20203;-80
2023/04/15 02:53:06;;;;;;;9.87;4.43;;;4.90;99.90;;;;;;5057656;28;20512;-79
2023/04/15 02:55:31;;;;;;;7.67;4.50;;;4.90;99.90;;;;;;5055400;28;20667;-79
2023/04/15 02:57:59;;;;;;;5.93;3.70;;;4.90;99.90;;;;;;5057083;28;20171;-79
2023/04/15 03:00:25;;;;;;;11.77;4.90;;;4.90;99.90;;;;;;5057390;28;20200;-80
2023/04/15 03:02:55;;;;;;;7.17;4.40;;;4.90;99.90;;;;;;5056743;28;20187;-79
2023/04/15 03:05:24;;;;;;;9.17;4.67;;;4.90;99.90;;;;;;5055980;28;20229;-79
2023/04/15 03:07:50;;;;;;;6.03;4.10;;;4.80;99.90;;;;;;5056344;28;20167;-81
2023/04/15 03:10:16;;;;;;;5.53;3.97;;;4.80;99.90;;;;;;5055604;28;20204;-79
2023/04/15 03:12:41;;;;;;;8.40;4.50;;;4.80;99.90;;;;;;5057855;28;20218;-79
2023/04/15 03:15:08;;;;;;;7.83;4.20;;;4.80;99.90;;;;;;5059120;28;20638;-79
2023/04/15 03:17:33;;;;;;;8.40;4.07;;;4.80;99.90;;;;;;5060197;28;20168;-79
2023/04/15 03:20:02;;;;;;;8.67;4.23;;;4.80;99.90;;;;;;5059078;28;20183;-79
2023/04/15 03:22:28;;;;;;;4.40;3.87;;;4.80;99.90;;;;;;5059288;28;20179;-79
2023/04/15 03:24:53;;;;;;;9.07;4.77;;;4.80;99.90;;;;;;5058764;28;20176;-80
2023/04/15 03:27:19;;;;;;;8.17;5.00;;;4.70;99.90;;;;;;5060897;28;20201;-79
2023/04/15 03:29:45;;;;;;;10.33;5.20;;;4.80;99.90;;;;;;5060319;28;20195;-79
2023/04/15 03:32:11;;;;;;;10.07;5.27;;;4.70;99.90;;;;;;5059208;28;20183;-80
2023/04/15 03:34:37;;;;;;;10.00;5.97;;;4.70;99.90;;;;;;5060305;28;20506;-79
2023/04/15 03:37:02;;;;;;;8.43;5.47;;;4.70;99.90;;;;;;5059481;28;20171;-79
2023/04/15 03:39:28;;;;;;;8.93;5.97;;;4.70;99.90;;;;;;5059746;28;20179;-79
2023/04/15 03:41:53;;;;;;;12.80;5.80;;;4.60;99.90;;;;;;5060639;28;20274;-79
2023/04/15 03:44:19;;;;;;;9.70;5.83;;;4.60;99.90;;;;;;5058563;28;20203;-79
2023/04/15 03:46:44;;;;;;;8.63;5.90;;;4.60;99.90;;;;;;5058602;28;20239;-80
2023/04/15 03:49:10;;;;;;;11.43;7.17;;;4.60;99.90;;;;;;5060079;28;20254;-80
2023/04/15 03:51:35;;;;;;;10.60;6.30;;;4.70;99.90;;;;;;5060235;28;20209;-79
2023/04/15 03:54:01;;;;;;;12.57;7.27;;;4.70;99.90;;;;;;5057985;28;20219;-79
2023/04/15 03:56:26;;;;;;;11.87;7.73;;;4.70;99.90;;;;;;5059819;28;20208;-79
2023/04/15 03:58:52;;;;;;;11.40;7.43;;;4.70;99.90;;;;;;5060229;28;20183;-79
2023/04/15 04:01:18;;;;;;;9.90;7.93;;;4.70;99.90;;;;;;5059349;28;20183;-79
2023/04/15 04:03:43;;;;;;;12.67;7.67;;;4.80;99.90;;;;;;5059607;28;20219;-79
2023/04/15 04:06:11;;;;;;;12.30;7.70;;;4.80;99.90;;;;;;5058671;28;20187;-80
2023/04/15 04:08:37;;;;;;;12.30;7.97;;;4.80;99.90;;;;;;5060581;28;20171;-79
2023/04/15 04:11:02;;;;;;;12.77;8.10;;;4.80;99.90;;;;;;5060143;28;20637;-79
2023/04/15 04:13:28;;;;;;;12.87;7.87;;;4.80;99.90;;;;;;5059428;28;20191;-79
2023/04/15 04:15:54;;;;;;;10.47;7.47;;;4.80;99.90;;;;;;5060134;28;20167;-79
2023/04/15 04:18:19;;;;;;;13.03;8.70;;;4.80;99.90;;;;;;5060486;28;20263;-79
2023/04/15 04:20:45;;;;;;;16.23;7.77;;;4.80;99.90;;;;;;5060132;28;20195;-79
2023/04/15 04:23:11;;;;;;;10.27;8.57;;;4.80;99.90;;;;;;5058856;28;20245;-79
2023/04/15 04:25:36;;;;;;;15.10;9.13;;;4.80;99.90;;;;;;5061152;28;20191;-78
2023/04/15 04:28:02;;;;;;;13.93;9.47;;;4.90;99.90;;;;;;5060510;28;20180;-78
2023/04/15 04:30:28;;;;;;;12.63;9.00;;;4.90;99.90;;;;;;5058470;28;20199;-79
2023/04/15 04:32:54;;;;;;;16.60;10.03;;;4.90;99.90;;;;;;5057904;28;20199;-79
2023/04/15 04:35:19;;;;;;;11.70;9.03;;;5.00;99.90;;;;;;5059957;28;20172;-79
2023/04/15 04:37:45;;;;;;;10.80;8.60;;;5.00;99.90;;;;;;5060116;28;20164;-80
2023/04/15 04:40:11;;;;;;;18.10;9.10;;;5.00;99.90;;;;;;5059201;28;20192;-79
2023/04/15 04:42:36;;;;;;;11.77;9.23;;;5.00;99.90;;;;;;5058594;28;20183;-79
2023/04/15 04:45:02;;;;;;;12.50;8.87;;;5.00;99.90;;;;;;5059713;28;20194;-79
2023/04/15 04:47:29;;;;;;;15.33;9.43;;;5.00;99.90;;;;;;5059021;28;20543;-79
2023/04/15 04:49:54;;;;;;;12.10;9.20;;;5.00;99.90;;;;;;5060226;28;20192;-79
2023/04/15 04:52:20;;;;;;;15.37;9.70;;;5.00;99.90;;;;;;5058226;28;20308;-79
2023/04/15 04:54:46;;;;;;;12.83;9.00;;;5.00;99.90;;;;;;5059067;28;20196;-79
2023/04/15 04:57:12;;;;;;;16.33;10.10;;;5.00;99.90;;;;;;5059118;28;20195;-79
2023/04/15 04:59:38;;;;;;;13.23;9.40;;;5.00;99.90;;;;;;5057652;28;20183;-79
2023/04/15 05:02:04;;;;;;;12.30;9.47;;;5.00;99.90;;;;;;5058062;28;20531;-79
2023/04/15 05:04:30;;;;;;;12.87;9.60;;;5.00;99.90;;;;;;5058037;28;20203;-79
2023/04/15 05:06:57;;;;;;;11.33;9.50;;;5.00;99.90;;;;;;5059982;28;20239;-78
2023/04/15 05:09:22;;;;;;;14.47;9.27;;;5.10;99.90;;;;;;5061251;28;20207;-81
2023/04/15 05:11:48;;;;;;;12.70;9.50;;;5.10;99.90;;;;;;5078065;28;20227;-78
2023/04/15 05:14:13;;;;;;;14.27;10.23;;;5.10;99.90;;;;;;5077088;28;20187;-81
2023/04/15 05:16:39;;;;;;;18.23;9.93;;;5.20;99.90;;;;;;5062543;28;20183;-79
2023/04/15 05:19:05;;;;;;;15.57;9.70;;;5.20;99.90;;;;;;5058235;28;20582;-79
2023/04/15 05:21:30;;;;;;;18.97;9.67;;;5.20;99.90;;;;;;5058009;28;20214;-79
2023/04/15 05:23:56;;;;;;;14.77;9.70;;;5.20;99.90;;;;;;5058182;28;20202;-79
2023/04/15 05:26:23;;;;;;;12.90;9.57;;;5.30;99.90;;;;;;5058375;28;20184;-79
2023/04/15 05:28:49;;;;;;;14.90;9.30;;;5.30;99.90;;;;;;5057958;28;20186;-79
2023/04/15 05:31:15;;;;;;;12.00;8.90;;;5.30;99.90;;;;;;5057690;28;20192;-79
2023/04/15 05:33:40;;;;;;;15.73;9.53;;;5.40;99.90;;;;;;5057062;28;20224;-78
2023/04/15 05:36:06;;;;;;;13.70;9.43;;;5.30;99.90;;;;;;5057867;28;20645;-79
2023/04/15 05:38:32;;;;;;;12.93;9.30;;;5.40;99.90;;;;;;5056561;28;20207;-79
2023/04/15 05:40:57;;;;;;;13.70;10.17;;;5.40;99.90;;;;;;5058177;28;20547;-79
2023/04/15 05:43:23;;;;;;;14.07;9.63;;;5.50;99.90;;;;;;5057951;28;20210;-79
2023/04/15 05:45:48;;;;;;;14.17;10.30;;;5.50;99.90;;;;;;5057276;28;20597;-79
2023/04/15 05:48:14;;;;;;;14.27;9.93;;;5.60;99.90;;;;;;5057214;28;20225;-79
2023/04/15 05:50:43;;;;;;;16.63;10.70;;;5.70;99.90;;;;;;5055475;28;20608;-79
2023/04/15 05:53:08;;;;;;;12.87;9.37;;;5.70;99.90;;;;;;5057560;28;20187;-79
2023/04/15 05:55:34;;;;;;;15.10;10.23;;;5.80;99.90;;;;;;5055954;28;20172;-79
2023/04/15 05:58:00;;;;;;;14.40;9.43;;;5.80;99.90;;;;;;5056929;28;20178;-79
2023/04/15 06:00:26;;;;;;;14.07;9.90;;;5.90;99.90;;;;;;5055605;28;20172;-79
2023/04/15 06:02:51;;;;;;;11.93;9.23;;;6.00;99.90;;;;;;5057089;28;20190;-79
2023/04/15 06:05:17;;;;;;;16.13;10.13;;;6.10;99.90;;;;;;5056731;28;20246;-79
2023/04/15 06:07:43;;;;;;;12.93;9.60;;;6.10;99.90;;;;;;5056011;28;20195;-79
2023/04/15 06:10:09;;;;;;;12.60;9.70;;;6.20;99.90;;;;;;5057307;28;20619;-79
2023/04/15 06:12:35;;;;;;;14.83;9.73;;;6.30;99.90;;;;;;5057053;28;20628;-78
2023/04/15 06:15:00;;;;;;;15.20;9.83;;;6.40;99.90;;;;;;5057662;28;20255;-79
2023/04/15 06:17:26;;;;;;;14.27;10.47;;;6.40;99.90;;;;;;5057800;28;20172;-79
2023/04/15 06:19:54;;;;;;;14.33;10.10;;;6.50;99.90;;;;;;5057313;28;20168;-79
2023/04/15 06:22:21;;;;;;;15.17;10.17;;;6.60;99.90;;;;;;5057297;28;20172;-79
2023/04/15 06:24:49;;;;;;;14.93;10.57;;;6.70;99.90;;;;;;5058348;28;20195;-79
2023/04/15 06:27:15;;;;;;;14.83;10.23;;;6.80;99.90;;;;;;5056559;28;20176;-79
2023/04/15 06:29:40;;;;;;;14.07;10.80;;;6.90;99.90;;;;;;5055736;28;20202;-80
2023/04/15 06:32:06;;;;;;;15.53;10.87;;;7.00;99.90;;;;;;5057454;28;20175;-79
2023/04/15 06:34:32;;;;;;;16.90;11.63;;;7.10;99.90;;;;;;5057235;28;20187;-79
2023/04/15 06:36:57;;;;;;;15.53;10.60;;;7.20;99.90;;;;;;5057676;28;20171;-79
2023/04/15 06:39:23;;;;;;;14.43;10.83;;;7.30;99.90;;;;;;5055951;28;20179;-79
2023/04/15 06:41:49;;;;;;;19.03;11.77;;;7.40;99.90;;;;;;5057446;28;20547;-79
2023/04/15 06:44:15;;;;;;;16.10;11.73;;;7.50;99.90;;;;;;5057531;28;20203;-80
2023/04/15 06:46:40;;;;;;;14.80;10.23;;;7.60;99.90;;;;;;5057811;28;20179;-79
2023/04/15 06:49:06;;;;;;;16.23;10.60;;;7.70;99.90;;;;;;5059987;28;20615;-80
2023/04/15 06:51:33;;;;;;;12.83;9.83;;;7.80;99.90;;;;;;5061490;28;20164;-80
2023/04/15 06:53:58;;;;;;;14.00;10.77;;;7.90;99.90;;;;;;5061556;28;20188;-79
2023/04/15 06:56:24;;;;;;;16.57;10.67;;;8.00;99.90;;;;;;5059436;28;20724;-80
2023/04/15 06:58:50;;;;;;;15.37;10.53;;;8.10;99.90;;;;;;5060125;28;20176;-79
2023/04/15 07:01:15;;;;;;;15.40;10.77;;;8.20;99.90;;;;;;5060607;28;20210;-79
2023/04/15 07:03:41;;;;;;;14.43;9.37;;;8.40;99.90;;;;;;5061098;28;20203;-79
2023/04/15 07:06:08;;;;;;;12.37;9.50;;;8.60;99.90;;;;;;5062212;28;20218;-80
2023/04/15 07:08:33;;;;;;;15.63;9.77;;;8.60;99.90;;;;;;5061913;28;20175;-79
2023/04/15 07:11:00;;;;;;;12.17;8.80;;;8.80;99.90;;;;;;5060022;28;20211;-80
2023/04/15 07:13:26;;;;;;;12.10;8.67;;;8.90;99.90;;;;;;5060097;28;20330;-79
2023/04/15 07:15:51;;;;;;;10.07;8.00;;;9.00;99.90;;;;;;5060923;28;20294;-79
2023/04/15 07:18:17;;;;;;;11.67;8.37;;;9.10;99.90;;;;;;5060728;28;20184;-79
2023/04/15 07:20:43;;;;;;;12.60;8.73;;;9.20;99.90;;;;;;5059845;28;20513;-80
2023/04/15 07:23:08;;;;;;;10.13;7.77;;;9.30;99.90;;;;;;5060869;28;20214;-80
2023/04/15 07:25:34;;;;;;;9.93;7.73;;;9.40;99.90;;;;;;5061167;28;20180;-80
2023/04/15 07:27:59;;;;;;;8.67;6.20;;;9.50;99.90;;;;;;5061295;28;20184;-80
2023/04/15 07:30:25;;;;;;;8.83;5.87;;;9.60;99.90;;;;;;5059555;28;20234;-79
2023/04/15 07:32:51;;;;;;;9.27;5.80;;;9.70;99.90;;;;;;5060561;28;20247;-79
2023/04/15 07:35:17;;;;;;;8.03;5.43;;;9.70;99.90;;;;;;5061471;28;20172;-79
2023/04/15 07:37:42;;;;;;;9.97;5.10;;;9.70;99.90;;;;;;5059438;28;20187;-80
2023/04/15 07:40:08;;;;;;;9.27;5.50;;;9.80;99.90;;;;;;5060553;28;20176;-79
2023/04/15 07:42:34;;;;;;;6.03;5.00;;;9.80;99.90;;;;;;5059515;28;20558;-79
2023/04/15 07:45:00;;;;;;;7.93;5.73;;;9.90;99.90;;;;;;5060920;28;20194;-79
2023/04/15 07:47:26;;;;;;;7.50;5.10;;;10.00;99.90;;;;;;5061311;28;20180;-80
2023/04/15 07:49:51;;;;;;;9.83;5.03;;;10.00;99.90;;;;;;5061652;28;20671;-79
2023/04/15 07:52:17;;;;;;;5.77;4.23;;;10.10;99.90;;;;;;5060878;28;20186;-80
2023/04/15 07:54:45;;;;;;;7.30;4.63;;;10.10;99.90;;;;;;5061139;28;20179;-79
2023/04/15 07:57:10;;;;;;;4.60;3.83;;;10.10;99.90;;;;;;5060789;28;20167;-80
2023/04/15 07:59:36;;;;;;;7.50;4.47;;;10.20;99.90;;;;;;5060298;28;20662;-80
2023/04/15 08:02:02;;;;;;;5.50;3.90;;;10.10;99.90;;;;;;5061114;28;20319;-79
2023/04/15 08:04:27;;;;;;;6.70;4.70;;;10.10;99.90;;;;;;5061455;28;20188;-79
2023/04/15 08:06:53;;;;;;;5.17;4.47;;;10.20;99.90;;;;;;5061613;28;20174;-80
2023/04/15 08:09:20;;;;;;;6.00;4.53;;;10.20;99.90;;;;;;5072020;28;20167;-79
2023/04/15 08:11:48;;;;;;;7.60;4.50;;;10.30;99.90;;;;;;5076293;28;20183;-78
2023/04/15 08:14:14;;;;;;;7.90;3.77;;;10.30;99.90;;;;;;5069107;28;20198;-80
2023/04/15 08:16:39;;;;;;;5.27;3.77;;;10.40;99.90;;;;;;5060774;28;20655;-79
2023/04/15 08:19:05;;;;;;;7.47;4.30;;;10.50;99.90;;;;;;5060700;28;20255;-80
2023/04/15 08:21:30;;;;;;;4.73;4.20;;;10.50;99.90;;;;;;5059709;28;20175;-80
2023/04/15 08:23:56;;;;;;;4.57;4.10;;;10.60;99.90;;;;;;5061108;28;20198;-80
2023/04/15 08:26:22;;;;;;;5.80;4.50;;;10.60;99.90;;;;;;5060296;28;20171;-80
2023/04/15 08:28:48;;;;;;;6.80;4.50;;;10.80;99.90;;;;;;5060727;28;20233;-79
2023/04/15 08:31:15;;;;;;;6.20;4.00;;;10.80;99.90;;;;;;5060487;28;20203;-80
2023/04/15 08:33:41;;;;;;;7.50;4.30;;;10.90;99.90;;;;;;5059869;28;20207;-80
2023/04/15 08:36:06;;;;;;;9.43;4.30;;;10.90;99.90;;;;;;5058948;28;20180;-80
2023/04/15 08:38:32;;;;;;;4.70;3.87;;;10.90;99.90;;;;;;5059104;28;20228;-81
2023/04/15 08:41:02;;;;;;;5.77;4.83;;;11.00;99.90;;;;;;5060424;28;20223;-79
2023/04/15 08:43:34;;;;;;;4.60;3.33;;;11.10;99.90;;;;;;5060475;28;20212;-80
2023/04/15 08:46:01;;;;;;;4.73;3.67;;;11.10;99.90;;;;;;5059592;28;20167;-80
2023/04/15 08:48:31;;;;;;;4.20;2.93;;;11.20;99.90;;;;;;5059704;28;20179;-80
2023/04/15 08:50:57;;;;;;;3.67;2.47;;;11.20;99.90;;;;;;5058391;28;20607;-79
2023/04/15 08:53:24;;;;;;;3.27;2.70;;;11.20;99.90;;;;;;5059718;28;20197;-79
2023/04/15 08:55:51;;;;;;;5.10;2.07;;;11.20;99.90;;;;;;5059454;28;20176;-80
2023/04/15 08:58:18;;;;;;;2.87;2.20;;;11.20;99.90;;;;;;5058535;28;20643;-80
2023/04/15 09:00:44;;;;;;;3.20;2.43;;;11.30;99.90;;;;;;5059314;28;20175;-80
2023/04/15 09:03:10;;;;;;;2.63;2.30;;;11.30;99.90;;;;;;5059106;28;20191;-82
2023/04/15 09:05:37;;;;;;;2.67;2.37;;;11.30;99.90;;;;;;5059006;28;20255;-80
2023/04/15 09:08:04;;;;;;;4.00;2.90;;;11.40;99.90;;;;;;5059164;28;20225;-79
2023/04/15 09:10:31;;;;;;;3.27;2.30;;;11.30;99.90;;;;;;5058531;28;20278;-80
2023/04/15 09:12:57;;;;;;;3.37;2.50;;;11.40;99.90;;;;;;5059004;28;20192;-80
2023/04/15 09:15:28;;;;;;;3.47;2.40;;;11.50;99.90;;;;;;5058912;28;20194;-81
2023/04/15 09:17:55;;;;;;;3.33;2.40;;;11.50;99.90;;;;;;5058939;28;20164;-80
2023/04/15 09:20:21;;;;;;;3.17;2.33;;;11.50;99.90;;;;;;5057428;28;20182;-80
2023/04/15 09:22:48;;;;;;;2.93;2.57;;;11.50;99.90;;;;;;5057537;28;20564;-79
2023/04/15 09:25:14;;;;;;;4.37;2.57;;;11.50;99.90;;;;;;5058364;28;20186;-80
2023/04/15 09:27:50;;;;;;;3.40;2.23;;;11.60;99.90;;;;;;5059002;28;20180;-80
2023/04/15 09:30:16;;;;;;;3.27;1.97;;;11.70;99.90;;;;;;5058115;28;20203;-79
2023/04/15 09:32:58;;;;;;;2.93;2.53;;;11.70;99.90;;;;;;5057290;28;20175;-79
2023/04/15 09:35:26;;;;;;;5.27;2.70;;;11.80;99.90;;;;;;5059455;28;20164;-79
2023/04/15 09:37:52;;;;;;;3.03;2.50;;;11.90;99.90;;;;;;5057969;28;20210;-79
2023/04/15 09:40:31;;;;;;;7.50;2.50;;;11.90;99.90;;;;;;5059068;28;20598;-80
2023/04/15 09:42:57;;;;;;;5.23;3.20;;;12.10;99.90;;;;;;5059228;28;20557;-79
2023/04/15 09:45:23;;;;;;;4.17;2.83;;;12.20;99.90;;;;;;5057185;28;20198;-80
2023/04/15 09:47:51;;;;;;;3.60;3.03;;;12.30;99.90;;;;;;5056793;28;20190;-79
2023/04/15 09:50:18;;;;;;;3.50;2.90;;;12.40;99.90;;;;;;5059032;28;20213;-80
2023/04/15 09:52:44;;;;;;;4.17;2.73;;;12.40;99.90;;;;;;5057339;28;20219;-79
2023/04/15 09:55:10;;;;;;;3.17;2.60;;;12.50;99.90;;;;;;5057297;28;20183;-79
2023/04/15 09:57:37;;;;;;;3.27;2.60;;;12.40;99.90;;;;;;5058148;28;20201;-81
2023/04/15 10:00:05;;;;;;;2.30;2.10;;;12.40;99.90;;;;;;5057690;28;20231;-79
2023/04/15 10:02:31;;;;;;;2.70;2.17;;;12.30;99.90;;;;;;5040998;28;20214;-79
2023/04/15 10:04:57;;;;;;;6.33;2.30;;;12.30;99.90;;;;;;5057725;28;20172;-80
2023/04/15 10:07:24;;;;;;;4.40;2.60;;;12.40;99.90;;;;;;5059092;28;20171;-80
2023/04/15 10:09:50;;;;;;;3.00;2.57;;;12.50;99.90;;;;;;5058283;28;20202;-80
2023/04/15 10:12:17;;;;;;;2.63;2.20;;;12.60;99.90;;;;;;5058863;28;20184;-80
2023/04/15 10:14:43;;;;;;;2.63;2.40;;;12.50;99.90;;;;;;5058512;28;20674;-80
2023/04/15 10:17:11;;;;;;;2.47;2.27;;;12.50;99.90;;;;;;5058675;28;20163;-80
2023/04/15 10:19:37;;;;;;;2.53;2.27;;;12.40;99.90;;;;;;5057143;28;20210;-81
2023/04/15 10:22:03;;;;;;;4.07;2.53;;;12.50;99.90;;;;;;5059726;28;20258;-79
2023/04/15 10:24:32;;;;;;;3.03;2.20;;;12.50;99.90;;;;;;5061994;28;20293;-80
2023/04/15 10:26:59;;;;;;;2.97;2.60;;;12.60;99.90;;;;;;5061938;28;20682;-81
2023/04/15 10:29:28;;;;;;;3.13;2.60;;;12.60;99.90;;;;;;5060553;28;20175;-80
2023/04/15 10:31:55;;;;;;;3.43;2.60;;;12.60;99.90;;;;;;5061046;28;20183;-79
2023/04/15 10:34:22;;;;;;;6.27;2.83;;;12.40;99.90;;;;;;5061129;28;20226;-80
2023/04/15 10:36:48;;;;;;;3.13;2.77;;;12.40;99.90;;;;;;5061743;28;20266;-80
2023/04/15 10:39:32;;;;;;;3.93;2.93;;;12.30;99.90;;;;;;5060885;28;20621;-80
2023/04/15 10:42:11;;;;;;;4.00;2.83;;;12.30;99.90;;;;;;5060662;28;20184;-80
2023/04/15 10:44:38;;;;;;;3.20;2.70;;;12.30;99.90;;;;;;5061521;28;20234;-80
2023/04/15 10:47:12;;;;;;;4.10;3.03;;;12.40;99.90;;;;;;5062846;28;20198;-79
2023/04/15 10:49:46;;;;;;;3.17;2.80;;;12.20;99.90;;;;;;5062561;28;20202;-79
2023/04/15 10:52:13;;;;;;;3.60;2.67;;;12.10;99.90;;;;;;5061932;28;20171;-80
2023/04/15 10:54:38;;;;;;;3.20;2.77;;;12.20;99.90;;;;;;5060945;28;20199;-80
2023/04/15 10:57:04;;;;;;;4.70;2.83;;;12.10;99.90;;;;;;5060123;28;20174;-80
2023/04/15 10:59:57;;;;;;;4.37;3.17;;;12.10;99.90;;;;;;5061753;28;20600;-80
2023/04/15 11:02:47;;;;;;;3.33;2.60;;;12.10;99.90;;;;;;5061550;28;20255;-80
2023/04/15 11:05:14;;;;;;;5.00;3.33;;;12.10;99.90;;;;;;5062415;28;20546;-80
2023/04/15 11:07:48;;;;;;;3.83;3.13;;;12.10;99.90;;;;;;5062089;28;20195;-80
2023/04/15 11:10:16;;;;;;;4.03;3.50;;;12.10;99.90;;;;;;5062099;28;20221;-80
2023/04/15 11:12:43;;;;;;;3.80;3.40;;;12.00;99.90;;;;;;5062196;28;20270;-80
2023/04/15 11:15:34;;;;;;;4.37;3.03;;;12.00;99.90;;;;;;5062485;28;20168;-79
2023/04/15 11:18:15;;;;;;;3.47;3.13;;;12.10;99.90;;;;;;5062219;28;20681;-80
2023/04/15 11:20:46;;;;;;;3.60;2.90;;;12.10;99.90;;;;;;5061273;28;20182;-80
2023/04/15 11:23:13;;;;;;;2.80;2.47;;;12.10;99.90;;;;;;5061662;28;20241;-79
2023/04/15 11:25:38;;;;;;;3.00;2.70;;;12.20;99.90;;;;;;5061995;28;20179;-80
2023/04/15 11:28:05;;;;;;;3.20;2.60;;;12.20;99.90;;;;;;5062730;28;20172;-79
2023/04/15 11:30:36;;;;;;;4.57;3.20;;;12.30;99.90;;;;;;5062000;28;20195;-80
2023/04/15 11:33:12;;;;;;;3.53;2.70;;;12.40;99.90;;;;;;5061581;28;20203;-79
2023/04/15 11:35:41;;;;;;;5.07;3.03;;;12.20;99.90;;;;;;5061818;28;20620;-79
2023/04/15 11:38:12;;;;;;;3.70;2.63;;;12.30;99.90;;;;;;5062253;28;20255;-80
2023/04/15 11:40:39;;;;;;;3.97;3.00;;;12.30;99.90;;;;;;5061582;28;20178;-80
2023/04/15 11:43:15;;;;;;;3.00;2.43;;;12.30;99.90;;;;;;5061454;28;20211;-79
2023/04/15 11:45:58;;;;;;;3.17;2.67;;;12.30;99.90;;;;;;5077055;28;20639;-78
2023/04/15 11:48:26;;;;;;;3.73;2.73;;;12.40;99.90;;;;;;5075865;28;20576;-80
2023/04/15 11:51:00;;;;;;;4.17;2.80;;;12.40;99.90;;;;;;5065332;28;20252;-79
2023/04/15 11:53:43;;;;;;;3.40;2.40;;;12.20;99.90;;;;;;5059649;28;20200;-80
2023/04/15 11:56:10;;;;;;;2.93;2.63;;;12.30;99.90;;;;;;5059413;28;20183;-80
2023/04/15 11:58:37;;;;;;;4.50;2.53;;;12.30;99.90;;;;;;5060787;28;20202;-82
2023/04/15 12:01:03;;;;;;;2.93;2.50;;;12.40;99.90;;;;;;5059931;28;20179;-79
2023/04/15 12:03:41;;;;;;;2.73;2.30;;;12.40;99.90;;;;;;5059559;28;20227;-80
2023/04/15 12:06:10;;;;;;;3.73;2.23;;;12.30;99.90;;;;;;5061248;28;20163;-80
2023/04/15 12:09:06;;;;;;;2.77;2.37;;;12.30;99.90;;;;;;5060933;28;20172;-80
2023/04/15 12:11:35;;;;;;;2.70;2.27;;;12.30;99.90;;;;;;5060713;28;20207;-80
2023/04/15 12:14:09;;;;;;;3.63;2.60;;;12.30;99.90;;;;;;5058250;28;20226;-80
2023/04/15 12:16:38;;;;;;;4.13;2.57;;;12.20;99.90;;;;;;5060122;28;20164;-80
2023/04/15 12:19:08;;;;;;;2.60;2.13;;;12.20;99.90;;;;;;5058998;28;20172;-80
2023/04/15 12:21:36;;;;;;;2.60;2.20;;;12.30;99.90;;;;;;5060964;28;20239;-80
2023/04/15 12:24:05;;;;;;;3.30;2.03;;;12.40;99.90;;;;;;5061476;28;20191;-80
2023/04/15 12:26:42;;;;;;;2.27;2.00;;;12.40;99.90;;;;;;5060538;28;20176;-80
2023/04/15 12:29:07;;;;;;;3.67;2.67;;;12.30;99.90;;;;;;5060245;28;20172;-80
2023/04/15 12:31:35;;;;;;;5.30;2.87;;;12.30;99.90;;;;;;5061007;28;20723;-80
2023/04/15 12:34:02;;;;;;;5.40;3.10;;;12.20;99.90;;;;;;5060142;28;20187;-80
2023/04/15 12:36:30;;;;;;;3.30;2.67;;;12.20;99.90;;;;;;5059740;28;20630;-79
2023/04/15 12:38:56;;;;;;;2.90;2.40;;;12.00;99.90;;;;;;5059211;28;20168;-80
2023/04/15 12:41:23;;;;;;;3.17;2.50;;;12.10;99.90;;;;;;5059009;28;20210;-79
2023/04/15 12:43:49;;;;;;;2.83;2.27;;;12.00;99.90;;;;;;5066423;28;20206;-80
2023/04/15 12:46:15;;;;;;;3.20;2.33;;;12.00;99.90;;;;;;5073374;28;20176;-79
2023/04/15 12:48:40;;;;;;;3.20;2.40;;;12.00;99.90;;;;;;5072518;28;20187;-79